createdAt,value
2019-04-22T00:01:58.121Z,5.67
2019-04-22T00:04:37.000Z,5.57
2019-04-22T00:07:15.627Z,6.10
2019-04-22T00:09:52.966Z,7.77
2019-04-22T00:12:22.200Z,6.60
2019-04-22T00:14:48.048Z,6.00
2019-04-22T00:17:23.459Z,5.70
2019-04-22T00:19:55.484Z,6.30
2019-04-22T00:22:22.297Z,5.80
2019-04-22T00:24:50.097Z,8.17
2019-04-22T00:30:04.731Z,6.20
2019-04-22T00:32:24.627Z,5.50
2019-04-22T00:34:54.798Z,7.53
2019-04-22T00:37:28.340Z,5.87
2019-04-22T00:39:57.355Z,7.10
2019-04-22T00:42:27.480Z,7.10
2019-04-22T00:45:00.485Z,6.70
2019-04-22T00:50:12.744Z,6.30
2019-04-22T00:52:28.142Z,5.80
2019-04-22T00:55:10.099Z,6.60
2019-04-22T00:57:29.627Z,6.37
2019-04-22T01:00:01.754Z,6.90
2019-04-22T01:05:01.117Z,6.33
2019-04-22T01:07:30.552Z,5.87
2019-04-22T01:10:07.241Z,6.17
2019-04-22T01:12:51.131Z,7.97
2019-04-22T01:15:25.510Z,6.13
2019-04-22T01:17:54.588Z,5.60
2019-04-22T01:20:50.924Z,7.37
2019-04-22T01:22:48.962Z,6.27
2019-04-22T01:25:19.217Z,7.50
2019-04-22T01:27:44.630Z,7.47
2019-04-22T01:30:10.900Z,6.63
2019-04-22T01:32:37.152Z,7.27
2019-04-22T01:35:15.136Z,6.33
2019-04-22T01:37:45.661Z,6.93
2019-04-22T01:40:24.160Z,8.13
2019-04-22T01:43:03.528Z,6.57
2019-04-22T01:45:25.836Z,8.47
2019-04-22T01:47:55.380Z,6.20
2019-04-22T01:50:27.745Z,6.20
2019-04-22T01:52:59.060Z,6.20
2019-04-22T01:55:33.774Z,7.07
2019-04-22T01:57:47.614Z,7.43
2019-04-22T02:00:18.963Z,6.20
2019-04-22T02:03:02.376Z,6.87
2019-04-22T02:05:22.853Z,6.20
2019-04-22T02:08:02.500Z,7.20
2019-04-22T02:10:29.241Z,6.17
2019-04-22T02:12:54.164Z,6.57
2019-04-22T02:15:23.791Z,6.83
2019-04-22T02:18:03.222Z,6.33
2019-04-22T02:20:25.425Z,8.20
2019-04-22T02:23:45.880Z,7.33
2019-04-22T02:26:01.252Z,6.13
2019-04-22T02:31:20.048Z,7.17
2019-04-22T02:34:07.924Z,8.13
2019-04-22T02:36:20.216Z,6.70
2019-04-22T02:51:12.001Z,8.33
2019-04-22T02:59:00.091Z,7.97
2019-04-22T03:01:13.862Z,7.23
2019-04-22T03:03:52.674Z,6.27
2019-04-22T03:06:15.964Z,6.70
2019-04-22T03:08:43.371Z,7.30
2019-04-22T03:11:16.890Z,6.33
2019-04-22T03:13:46.843Z,6.30
2019-04-22T03:18:46.884Z,6.20
2019-04-22T03:26:27.850Z,6.27
2019-04-22T03:28:47.722Z,6.87
2019-04-22T03:32:33.441Z,6.90
2019-04-22T03:39:46.178Z,5.90
2019-04-22T03:54:52.403Z,6.90
2019-04-22T03:59:41.353Z,6.73
2019-04-22T04:07:34.264Z,6.80
2019-04-22T04:09:44.262Z,6.10
2019-04-22T04:12:20.709Z,6.63
2019-04-22T04:14:46.121Z,6.33
2019-04-22T04:19:47.268Z,5.77
2019-04-22T04:25:05.873Z,7.10
2019-04-22T04:29:54.476Z,6.03
2019-04-22T04:39:45.852Z,7.63
2019-04-22T04:42:25.408Z,6.20
2019-04-22T04:47:29.523Z,6.00
2019-04-22T04:49:46.126Z,5.80
2019-04-22T04:52:16.311Z,6.70
2019-04-22T04:57:16.543Z,6.53
2019-04-22T05:02:22.593Z,6.60
2019-04-22T05:09:47.602Z,6.00
2019-04-22T05:14:38.455Z,6.53
2019-04-22T05:17:14.318Z,7.13
2019-04-22T05:22:07.851Z,6.30
2019-04-22T05:24:34.969Z,5.90
2019-04-22T05:27:13.463Z,10.30
2019-04-22T05:29:56.859Z,6.00
2019-04-22T05:34:35.565Z,7.37
2019-04-22T05:37:07.584Z,5.60
2019-04-22T05:39:41.522Z,5.80
2019-04-22T05:42:11.544Z,7.70
2019-04-22T05:44:41.190Z,6.37
2019-04-22T05:47:08.110Z,5.37
2019-04-22T05:49:35.098Z,5.03
2019-04-22T05:52:09.635Z,4.63
2019-04-22T05:54:39.626Z,5.23
2019-04-22T05:57:09.438Z,6.53
2019-04-22T05:59:39.620Z,5.83
2019-04-22T06:02:13.535Z,4.93
2019-04-22T06:04:40.017Z,6.07
2019-04-22T06:07:06.691Z,5.90
2019-04-22T06:09:32.337Z,5.30
2019-04-22T06:12:04.943Z,5.30
2019-04-22T06:14:37.078Z,6.60
2019-04-22T06:17:19.959Z,5.00
2019-04-22T06:19:50.822Z,5.07
2019-04-22T06:22:25.391Z,5.10
2019-04-22T06:24:49.383Z,6.37
2019-04-22T06:27:21.183Z,7.17
2019-04-22T06:29:46.159Z,4.53
2019-04-22T06:32:26.632Z,4.87
2019-04-22T06:34:48.572Z,6.33
2019-04-22T06:37:19.754Z,4.93
2019-04-22T06:39:55.419Z,5.33
2019-04-22T06:42:21.774Z,4.93
2019-04-22T06:44:51.591Z,8.27
2019-04-22T06:47:36.362Z,4.60
2019-04-22T06:49:52.575Z,7.13
2019-04-22T06:52:17.916Z,4.60
2019-04-22T06:54:50.415Z,4.93
2019-04-22T06:57:24.323Z,4.20
2019-04-22T06:59:52.006Z,6.23
2019-04-22T07:02:30.730Z,6.90
2019-04-22T07:04:49.437Z,4.70
2019-04-22T07:07:21.735Z,3.93
2019-04-22T07:14:48.807Z,5.10
2019-04-22T07:17:26.171Z,4.63
2019-04-22T07:20:04.381Z,4.40
2019-04-22T07:29:55.341Z,5.13
2019-04-22T07:32:32.087Z,4.33
2019-04-22T07:34:52.785Z,6.23
2019-04-22T07:37:28.457Z,4.17
2019-04-22T07:39:45.789Z,4.50
2019-04-22T07:42:19.217Z,5.23
2019-04-22T07:44:51.027Z,6.00
2019-04-22T07:47:29.553Z,5.70
2019-04-22T07:49:52.640Z,4.00
2019-04-22T07:52:23.180Z,3.93
2019-04-22T07:54:52.476Z,6.70
2019-04-22T07:57:27.931Z,5.27
2019-04-22T07:59:49.454Z,7.03
2019-04-22T08:02:26.194Z,4.27
2019-04-22T08:04:59.022Z,4.53
2019-04-22T08:07:18.146Z,5.83
2019-04-22T08:12:20.227Z,4.37
2019-04-22T08:17:45.052Z,4.23
2019-04-22T08:19:50.135Z,4.40
2019-04-22T08:22:20.040Z,4.60
2019-04-22T08:24:51.493Z,6.27
2019-04-22T08:27:19.786Z,3.87
2019-04-22T08:29:59.813Z,4.23
2019-04-22T08:32:21.772Z,3.80
2019-04-22T08:34:47.550Z,4.47
2019-04-22T08:37:41.457Z,3.80
2019-04-22T08:39:54.625Z,4.37
2019-04-22T08:42:27.790Z,4.17
2019-04-22T08:45:09.618Z,5.07
2019-04-22T08:47:29.082Z,4.83
2019-04-22T08:49:57.264Z,3.93
2019-04-22T08:52:20.806Z,4.40
2019-04-22T08:54:51.257Z,3.70
2019-04-22T08:57:25.902Z,6.20
2019-04-22T08:59:49.031Z,4.20
2019-04-22T09:02:30.116Z,5.23
2019-04-22T09:04:49.429Z,4.20
2019-04-22T09:07:28.770Z,6.43
2019-04-22T09:09:54.074Z,5.17
2019-04-22T09:12:23.842Z,4.20
2019-04-22T09:14:45.636Z,4.80
2019-04-22T09:17:21.390Z,4.03
2019-04-22T09:19:47.886Z,4.07
2019-04-22T09:22:17.260Z,4.13
2019-04-22T09:25:00.434Z,4.73
2019-04-22T09:27:26.613Z,4.17
2019-04-22T09:29:56.413Z,3.70
2019-04-22T09:32:39.998Z,4.47
2019-04-22T09:34:54.609Z,4.20
2019-04-22T09:37:26.882Z,5.63
2019-04-22T09:39:59.911Z,4.70
2019-04-22T09:42:24.225Z,6.50
2019-04-22T09:44:53.334Z,4.23
2019-04-22T09:47:25.149Z,3.83
2019-04-22T09:49:54.907Z,3.77
2019-04-22T09:52:20.590Z,3.60
2019-04-22T09:54:59.641Z,4.37
2019-04-22T09:59:57.697Z,3.60
2019-04-22T10:02:31.791Z,6.40
2019-04-22T10:04:58.711Z,3.90
2019-04-22T10:07:27.586Z,5.57
2019-04-22T10:12:29.820Z,4.23
2019-04-22T10:14:55.748Z,4.20
2019-04-22T10:17:23.660Z,5.27
2019-04-22T10:19:53.693Z,4.00
2019-04-22T10:22:29.189Z,5.53
2019-04-22T10:24:55.276Z,3.67
2019-04-22T10:27:24.371Z,4.17
2019-04-22T10:30:00.249Z,4.07
2019-04-22T10:32:27.637Z,5.97
2019-04-22T10:34:44.032Z,8.03
2019-04-22T10:37:10.891Z,6.77
2019-04-22T10:39:47.141Z,4.87
2019-04-22T10:42:09.109Z,4.33
2019-04-22T10:44:39.238Z,3.50
2019-04-22T10:47:09.700Z,5.27
2019-04-22T10:49:38.457Z,3.47
2019-04-22T10:52:06.739Z,8.27
2019-04-22T10:54:35.722Z,5.37
2019-04-22T10:57:04.281Z,5.07
2019-04-22T10:59:32.336Z,3.90
2019-04-22T11:02:01.387Z,4.50
2019-04-22T11:04:30.121Z,3.27
2019-04-22T11:07:03.359Z,7.70
2019-04-22T11:09:29.045Z,4.37
2019-04-22T11:12:04.413Z,3.33
2019-04-22T11:14:28.604Z,3.20
2019-04-22T11:16:59.805Z,6.10
2019-04-22T11:19:27.725Z,3.27
2019-04-22T11:22:03.799Z,3.67
2019-04-22T11:24:26.638Z,3.50
2019-04-22T11:26:56.895Z,4.30
2019-04-22T11:29:25.587Z,3.57
2019-04-22T11:31:54.711Z,6.47
2019-04-22T11:34:26.938Z,4.07
2019-04-22T11:36:55.143Z,3.23
2019-04-22T11:39:23.702Z,2.97
2019-04-22T11:41:54.118Z,3.30
2019-04-22T11:44:23.494Z,3.80
2019-04-22T11:46:51.945Z,3.70
2019-04-22T11:49:19.768Z,4.53
2019-04-22T11:51:47.925Z,4.70
2019-04-22T11:54:16.993Z,3.63
2019-04-22T11:56:45.452Z,3.87
2019-04-22T11:59:15.069Z,3.80
2019-04-22T12:01:44.649Z,3.97
2019-04-22T12:04:13.800Z,3.90
2019-04-22T12:06:41.934Z,3.50
2019-04-22T12:09:12.232Z,3.97
2019-04-22T12:11:40.797Z,4.97
2019-04-22T12:14:09.766Z,4.30
2019-04-22T12:16:39.264Z,8.30
2019-04-22T12:19:07.448Z,4.33
2019-04-22T12:21:37.128Z,6.27
2019-04-22T12:24:05.594Z,3.97
2019-04-22T12:26:34.572Z,4.43
2019-04-22T12:29:04.753Z,3.30
2019-04-22T12:31:33.508Z,4.33
2019-04-22T12:34:01.742Z,3.67
2019-04-22T12:36:30.721Z,3.83
2019-04-22T12:38:59.726Z,6.40
2019-04-22T12:41:28.162Z,4.43
2019-04-22T12:43:56.547Z,3.47
2019-04-22T12:46:26.129Z,4.27
2019-04-22T12:48:56.090Z,3.43
2019-04-22T12:51:24.962Z,3.10
2019-04-22T12:53:55.036Z,4.47
2019-04-22T12:56:23.881Z,6.63
2019-04-22T12:58:53.775Z,6.60
2019-04-22T13:01:22.131Z,3.70
2019-04-22T13:03:50.418Z,5.50
2019-04-22T13:06:19.473Z,3.33
2019-04-22T13:08:47.987Z,5.83
2019-04-22T13:11:19.680Z,3.40
2019-04-22T13:13:47.069Z,4.40
2019-04-22T13:16:17.365Z,3.27
2019-04-22T13:18:53.094Z,4.63
2019-04-22T13:21:15.752Z,4.23
2019-04-22T13:23:44.466Z,6.03
2019-04-22T13:26:12.978Z,4.20
2019-04-22T13:28:41.016Z,3.00
2019-04-22T13:31:09.810Z,4.33
2019-04-22T13:33:38.785Z,3.00
2019-04-22T13:36:07.998Z,4.23
2019-04-22T13:38:38.443Z,3.33
2019-04-22T13:41:17.307Z,3.37
2019-04-22T13:43:36.598Z,3.33
2019-04-22T13:46:06.074Z,5.87
2019-04-22T13:48:59.151Z,2.80
2019-04-22T13:51:37.566Z,3.97
2019-04-22T13:55:05.567Z,3.13
2019-04-22T13:56:25.146Z,6.73
2019-04-22T13:58:48.426Z,4.60
2019-04-22T14:01:08.478Z,6.03
2019-04-22T14:03:58.603Z,3.97
2019-04-22T14:06:27.165Z,4.10
2019-04-22T14:08:55.669Z,4.17
2019-04-22T14:11:32.381Z,4.43
2019-04-22T14:13:56.717Z,5.50
2019-04-22T14:16:24.934Z,3.53
2019-04-22T14:18:53.879Z,3.40
2019-04-22T14:21:22.863Z,3.07
2019-04-22T14:23:52.893Z,3.13
2019-04-22T14:26:21.023Z,5.77
2019-04-22T14:28:50.043Z,2.73
2019-04-22T14:31:18.448Z,2.90
2019-04-22T14:33:50.085Z,3.47
2019-04-22T14:36:19.203Z,3.60
2019-04-22T14:38:48.034Z,6.47
2019-04-22T14:41:35.713Z,3.00
2019-04-22T14:44:46.872Z,5.07
2019-04-22T14:46:39.139Z,3.40
2019-04-22T14:49:10.688Z,7.00
2019-04-22T14:51:41.766Z,3.27
2019-04-22T14:54:05.280Z,4.90
2019-04-22T14:56:16.140Z,2.70
2019-04-22T14:58:44.863Z,3.80
2019-04-22T15:01:13.008Z,3.90
2019-04-22T15:03:43.993Z,5.80
2019-04-22T15:06:10.700Z,3.30
2019-04-22T15:08:39.363Z,3.90
2019-04-22T15:11:08.746Z,6.87
2019-04-22T15:13:36.823Z,3.77
2019-04-22T15:16:25.676Z,3.40
2019-04-22T15:18:59.944Z,4.63
2019-04-22T15:21:28.909Z,4.30
2019-04-22T15:24:00.525Z,3.93
2019-04-22T15:26:28.669Z,4.90
2019-04-22T15:28:57.741Z,10.87
2019-04-22T15:31:27.054Z,6.47
2019-04-22T15:33:56.336Z,3.77
2019-04-22T15:36:26.138Z,4.03
2019-04-22T15:38:55.325Z,5.90
2019-04-22T15:41:23.273Z,7.50
2019-04-22T15:43:52.083Z,4.53
2019-04-22T15:46:20.250Z,3.47
2019-04-22T15:48:48.547Z,3.40
2019-04-22T15:51:16.569Z,4.27
2019-04-22T15:53:45.459Z,5.87
2019-04-22T15:56:14.593Z,3.03
2019-04-22T15:58:43.794Z,5.00
2019-04-22T16:01:19.281Z,3.60
2019-04-22T16:03:42.707Z,3.90
2019-04-22T16:06:11.938Z,3.77
2019-04-22T16:08:41.138Z,3.17
2019-04-22T16:11:09.769Z,4.30
2019-04-22T16:13:39.939Z,3.50
2019-04-22T16:16:07.605Z,5.57
2019-04-22T16:18:36.142Z,4.70
2019-04-22T16:21:04.871Z,4.67
2019-04-22T16:23:58.657Z,5.43
2019-04-22T16:26:46.612Z,4.87
2019-04-22T16:29:15.807Z,4.80
2019-04-22T16:31:45.107Z,6.80
2019-04-22T16:34:13.329Z,4.23
2019-04-22T16:36:42.761Z,6.27
2019-04-22T16:39:13.071Z,3.23
2019-04-22T16:41:42.397Z,3.23
2019-04-22T16:44:10.642Z,4.80
2019-04-22T16:46:39.358Z,3.87
2019-04-22T16:49:07.623Z,4.10
2019-04-22T16:51:36.195Z,8.80
2019-04-22T16:54:06.342Z,6.13
2019-04-22T16:56:37.035Z,4.03
2019-04-22T16:59:04.816Z,3.50
2019-04-22T17:01:52.753Z,6.17
2019-04-22T17:04:50.716Z,4.40
2019-04-22T17:07:20.603Z,5.73
2019-04-22T17:09:49.891Z,4.07
2019-04-22T17:12:17.898Z,9.73
2019-04-22T17:14:52.679Z,9.77
2019-04-22T17:17:15.488Z,4.37
2019-04-22T17:19:45.052Z,4.10
2019-04-22T17:22:13.373Z,5.53
2019-04-22T17:24:41.611Z,5.33
2019-04-22T17:27:10.647Z,11.77
2019-04-22T17:29:38.706Z,4.90
2019-04-22T17:32:12.815Z,5.90
2019-04-22T17:34:36.409Z,5.47
2019-04-22T17:37:11.324Z,6.07
2019-04-22T17:39:45.989Z,8.57
2019-04-22T17:42:25.111Z,6.77
2019-04-22T17:45:24.054Z,4.07
2019-04-22T17:48:12.106Z,5.63
2019-04-22T17:50:46.912Z,4.93
2019-04-22T17:53:17.050Z,5.63
2019-04-22T17:55:46.461Z,5.47
2019-04-22T17:58:09.198Z,8.23
2019-04-22T18:00:34.760Z,5.23
2019-04-22T18:03:01.810Z,4.37
2019-04-22T18:05:24.098Z,6.40
2019-04-22T18:08:10.022Z,4.90
2019-04-22T18:10:36.089Z,5.70
2019-04-22T18:13:15.727Z,5.47
2019-04-22T18:15:43.538Z,6.50
2019-04-22T18:18:12.777Z,6.50
2019-04-22T18:20:34.681Z,6.40
2019-04-22T18:22:57.010Z,7.20
2019-04-22T18:25:33.859Z,8.83
2019-04-22T18:28:13.797Z,7.63
2019-04-22T18:30:33.582Z,5.30
2019-04-22T18:33:07.526Z,6.40
2019-04-22T18:35:33.900Z,7.20
2019-04-22T18:38:16.532Z,5.50
2019-04-22T18:40:35.743Z,5.17
2019-04-22T18:43:11.595Z,7.30
2019-04-22T18:45:52.748Z,8.60
2019-04-22T18:47:59.886Z,7.40
2019-04-22T18:51:04.535Z,7.03
2019-04-22T18:53:41.585Z,7.97
2019-04-22T18:56:19.203Z,8.37
2019-04-22T18:58:39.057Z,6.83
2019-04-22T19:00:59.675Z,9.00
2019-04-22T19:03:30.136Z,5.77
2019-04-22T19:06:29.472Z,8.17
2019-04-22T19:08:50.566Z,8.87
2019-04-22T19:11:17.537Z,7.90
2019-04-22T19:16:32.051Z,9.40
2019-04-22T19:18:45.965Z,5.97
2019-04-22T19:21:16.074Z,5.93
2019-04-22T19:23:47.215Z,9.40
2019-04-22T19:26:26.282Z,8.87
2019-04-22T19:28:48.466Z,9.73
2019-04-22T19:31:19.146Z,8.67
2019-04-22T19:33:46.246Z,8.77
2019-04-22T19:36:16.120Z,7.33
2019-04-22T19:38:31.115Z,7.57
2019-04-22T19:41:19.932Z,6.63
2019-04-22T19:43:47.279Z,6.83
2019-04-22T19:46:08.878Z,6.23
2019-04-22T19:48:45.576Z,6.90
2019-04-22T19:51:16.661Z,9.10
2019-04-22T19:53:43.894Z,6.87
2019-04-22T19:56:10.059Z,7.40
2019-04-22T19:58:39.334Z,6.13
2019-04-22T20:01:37.008Z,10.47
2019-04-22T20:04:24.739Z,7.20
2019-04-22T20:06:52.269Z,6.87
2019-04-22T20:09:26.846Z,7.13
2019-04-22T20:11:51.809Z,7.30
2019-04-22T20:14:17.041Z,6.93
2019-04-22T20:16:43.859Z,6.60
2019-04-22T20:19:25.217Z,7.13
2019-04-22T20:21:50.015Z,6.57
2019-04-22T20:24:06.720Z,6.87
2019-04-22T20:26:49.722Z,7.03
2019-04-22T20:29:24.367Z,7.87
2019-04-22T20:31:49.583Z,8.63
2019-04-22T20:34:21.182Z,7.57
2019-04-22T20:36:57.630Z,8.20
2019-04-22T20:39:10.868Z,10.10
2019-04-22T20:41:36.731Z,6.43
2019-04-22T20:44:19.230Z,7.53
2019-04-22T20:46:40.792Z,8.63
2019-04-22T20:49:15.180Z,8.33
2019-04-22T20:51:53.617Z,8.23
2019-04-22T20:54:11.745Z,7.83
2019-04-22T20:56:36.917Z,9.50
2019-04-22T20:59:14.573Z,8.20
2019-04-22T21:01:43.087Z,7.70
2019-04-22T21:03:58.687Z,7.10
2019-04-22T21:06:36.957Z,9.00
2019-04-22T21:09:15.478Z,6.87
2019-04-22T21:11:38.592Z,9.00
2019-04-22T21:14:06.378Z,9.13
2019-04-22T21:16:44.965Z,8.23
2019-04-22T21:19:11.816Z,7.00
2019-04-22T21:21:46.091Z,9.00
2019-04-22T21:24:02.768Z,7.50
2019-04-22T21:26:43.718Z,8.33
2019-04-22T21:29:09.846Z,7.87
2019-04-22T21:31:43.819Z,6.57
2019-04-22T21:34:05.245Z,6.97
2019-04-22T21:36:41.483Z,6.67
2019-04-22T21:39:06.854Z,7.17
2019-04-22T21:41:36.971Z,9.97
2019-04-22T21:44:10.245Z,7.10
2019-04-22T21:46:42.501Z,8.33
2019-04-22T21:49:12.818Z,8.47
2019-04-22T21:51:43.452Z,7.30
2019-04-22T21:57:09.123Z,7.23
2019-04-22T21:59:24.052Z,7.10
2019-04-22T22:02:05.615Z,7.70
2019-04-22T22:04:26.688Z,7.53
2019-04-22T22:06:50.423Z,9.23
2019-04-22T22:09:33.421Z,8.10
2019-04-22T22:11:52.627Z,9.20
2019-04-22T22:14:28.991Z,7.67
2019-04-22T22:16:50.584Z,7.53
2019-04-22T22:19:30.152Z,8.83
2019-04-22T22:22:28.412Z,9.50
2019-04-22T22:24:33.879Z,7.77
2019-04-22T22:26:55.294Z,8.37
2019-04-22T22:29:47.973Z,13.07
2019-04-22T22:31:58.402Z,8.43
2019-04-22T22:34:28.007Z,8.93
2019-04-22T22:36:53.019Z,7.60
2019-04-22T22:39:21.766Z,7.47
2019-04-22T22:41:41.747Z,9.07
2019-04-22T22:44:18.468Z,8.47
2019-04-22T22:46:56.328Z,8.43
2019-04-22T22:49:37.602Z,8.67
2019-04-22T22:52:28.862Z,9.13
2019-04-22T22:54:34.952Z,8.33
2019-04-22T22:57:00.353Z,9.20
2019-04-22T22:59:33.157Z,9.97
2019-04-22T23:02:04.624Z,8.70
2019-04-22T23:04:36.533Z,8.60
2019-04-22T23:07:06.794Z,9.10
2019-04-22T23:09:30.773Z,8.93
2019-04-22T23:14:31.137Z,8.67
2019-04-22T23:16:49.487Z,12.60
2019-04-22T23:19:13.591Z,9.83
2019-04-22T23:21:46.794Z,8.70
2019-04-22T23:24:44.103Z,8.60
2019-04-22T23:27:17.913Z,8.60
2019-04-22T23:30:05.369Z,8.67
2019-04-22T23:32:35.236Z,9.63
2019-04-22T23:35:16.740Z,11.80
2019-04-22T23:37:49.971Z,8.17
2019-04-22T23:42:53.688Z,9.30
2019-04-22T23:45:24.245Z,8.00
2019-04-22T23:47:43.199Z,9.17
2019-04-22T23:50:26.125Z,9.90
2019-04-22T23:53:00.576Z,8.63
2019-04-22T23:55:27.814Z,9.53
2019-04-22T23:58:27.652Z,10.10
